sensor_id;sensor_type;location;lat;lon;timestamp;pressure;altitude;pressure_sealevel;temperature;humidity
50123;BME280;36021;48.670;6.184;2022-12-20T00:00:47;99371.00;;;11.15;100.00
50123;BME280;36021;48.670;6.184;2022-12-20T00:03:13;99373.47;;;11.16;100.00
50123;BME280;36021;48.670;6.184;2022-12-20T00:05:39;99359.16;;;11.14;100.00
50123;BME280;36021;48.670;6.184;2022-12-20T00:08:06;99365.75;;;11.13;100.00
50123;BME280;36021;48.670;6.184;2022-12-20T00:10:40;99359.16;;;11.14;100.00
50123;BME280;36021;48.670;6.184;2022-12-20T00:13:06;99353.34;;;11.16;100.00
50123;BME280;36021;48.670;6.184;2022-12-20T00:15:32;99353.09;;;11.12;100.00
50123;BME280;36021;48.670;6.184;2022-12-20T00:17:58;99356.16;;;11.11;100.00
50123;BME280;36021;48.670;6.184;2022-12-20T00:20:24;99351.44;;;11.11;100.00
50123;BME280;36021;48.670;6.184;2022-12-20T00:22:51;99352.81;;;11.14;100.00
50123;BME280;36021;48.670;6.184;2022-12-20T00:25:17;99347.59;;;11.12;100.00
50123;BME280;36021;48.670;6.184;2022-12-20T00:27:43;99347.03;;;11.10;100.00
50123;BME280;36021;48.670;6.184;2022-12-20T00:30:10;99339.91;;;11.09;100.00
50123;BME280;36021;48.670;6.184;2022-12-20T00:32:37;99344.59;;;11.09;100.00
50123;BME280;36021;48.670;6.184;2022-12-20T00:35:03;99337.69;;;11.06;100.00
50123;BME280;36021;48.670;6.184;2022-12-20T00:37:30;99348.69;;;11.11;100.00
50123;BME280;36021;48.670;6.184;2022-12-20T00:39:56;99343.78;;;11.03;100.00
50123;BME280;36021;48.670;6.184;2022-12-20T00:42:21;99335.81;;;11.02;100.00
50123;BME280;36021;48.670;6.184;2022-12-20T00:44:47;99333.34;;;11.00;100.00
50123;BME280;36021;48.670;6.184;2022-12-20T00:47:13;99325.63;;;11.02;100.00
50123;BME280;36021;48.670;6.184;2022-12-20T00:49:40;99335.81;;;11.02;100.00
50123;BME280;36021;48.670;6.184;2022-12-20T00:52:06;99324.47;;;11.03;100.00
50123;BME280;36021;48.670;6.184;2022-12-20T00:54:32;99328.06;;;11.04;100.00
50123;BME280;36021;48.670;6.184;2022-12-20T00:56:58;99330.00;;;11.03;100.00
50123;BME280;36021;48.670;6.184;2022-12-20T00:59:23;99323.97;;;11.01;100.00
50123;BME280;36021;48.670;6.184;2022-12-20T01:01:50;99331.47;;;10.95;100.00
50123;BME280;36021;48.670;6.184;2022-12-20T01:04:16;99326.78;;;10.96;100.00
50123;BME280;36021;48.670;6.184;2022-12-20T01:06:42;99325.13;;;10.95;100.00
50123;BME280;36021;48.670;6.184;2022-12-20T01:09:09;99317.72;;;10.90;100.00
50123;BME280;36021;48.670;6.184;2022-12-20T01:11:36;99318.84;;;10.89;100.00
50123;BME280;36021;48.670;6.184;2022-12-20T01:14:09;99322.97;;;10.87;100.00
50123;BME280;36021;48.670;6.184;2022-12-20T01:16:43;99322.16;;;10.86;100.00
50123;BME280;36021;48.670;6.184;2022-12-20T01:19:12;99314.22;;;10.80;100.00
50123;BME280;36021;48.670;6.184;2022-12-20T01:21:39;99323.13;;;10.72;100.00
50123;BME280;36021;48.670;6.184;2022-12-20T01:24:14;99327.28;;;10.69;100.00
50123;BME280;36021;48.670;6.184;2022-12-20T01:26:40;99319.28;;;10.68;100.00
50123;BME280;36021;48.670;6.184;2022-12-20T01:29:06;99317.63;;;10.67;100.00
50123;BME280;36021;48.670;6.184;2022-12-20T01:31:33;99321.53;;;10.61;100.00
50123;BME280;36021;48.670;6.184;2022-12-20T01:34:00;99314.09;;;10.61;100.00
50123;BME280;36021;48.670;6.184;2022-12-20T01:36:32;99324.06;;;10.57;100.00
50123;BME280;36021;48.670;6.184;2022-12-20T01:39:04;99318.84;;;10.56;100.00
50123;BME280;36021;48.670;6.184;2022-12-20T01:41:32;99309.50;;;10.52;100.00
50123;BME280;36021;48.670;6.184;2022-12-20T01:44:02;99307.91;;;10.45;100.00
50123;BME280;36021;48.670;6.184;2022-12-20T01:46:33;99307.91;;;10.45;100.00
50123;BME280;36021;48.670;6.184;2022-12-20T01:51:49;99310.66;;;10.45;100.00
50123;BME280;36021;48.670;6.184;2022-12-20T01:54:32;99315.84;;;10.47;100.00
50123;BME280;36021;48.670;6.184;2022-12-20T01:57:05;99323.31;;;10.47;100.00
50123;BME280;36021;48.670;6.184;2022-12-20T01:59:34;99315.59;;;10.49;100.00
50123;BME280;36021;48.670;6.184;2022-12-20T02:02:04;99309.50;;;10.52;100.00
50123;BME280;36021;48.670;6.184;2022-12-20T02:04:31;99310.53;;;10.61;100.00
50123;BME280;36021;48.670;6.184;2022-12-20T02:06:57;99308.25;;;10.68;100.00
50123;BME280;36021;48.670;6.184;2022-12-20T02:09:23;99311.56;;;10.70;100.00
50123;BME280;36021;48.670;6.184;2022-12-20T02:20:04;99303.50;;;10.78;100.00
50123;BME280;36021;48.670;6.184;2022-12-20T02:31:25;99270.16;;;10.75;100.00
50123;BME280;36021;48.670;6.184;2022-12-20T02:33:54;99282.03;;;10.75;100.00
50123;BME280;36021;48.670;6.184;2022-12-20T02:36:21;99268.50;;;10.74;100.00
50123;BME280;36021;48.670;6.184;2022-12-20T02:38:49;99256.44;;;10.70;100.00
50123;BME280;36021;48.670;6.184;2022-12-20T02:41:26;99246.28;;;10.65;100.00
50123;BME280;36021;48.670;6.184;2022-12-20T02:44:00;99245.75;;;10.63;100.00
50123;BME280;36021;48.670;6.184;2022-12-20T02:46:46;99238.00;;;10.65;100.00
50123;BME280;36021;48.670;6.184;2022-12-20T02:49:16;99240.00;;;10.60;100.00
50123;BME280;36021;48.670;6.184;2022-12-20T02:51:45;99230.66;;;10.56;100.00
50123;BME280;36021;48.670;6.184;2022-12-20T02:54:12;99232.84;;;10.54;100.00
50123;BME280;36021;48.670;6.184;2022-12-20T02:56:44;99227.94;;;10.51;100.00
50123;BME280;36021;48.670;6.184;2022-12-20T02:59:28;99222.38;;;10.56;100.00
50123;BME280;36021;48.670;6.184;2022-12-20T03:01:55;99220.41;;;10.61;100.00
50123;BME280;36021;48.670;6.184;2022-12-20T03:04:24;99215.72;;;10.62;100.00
50123;BME280;36021;48.670;6.184;2022-12-20T03:07:10;99221.72;;;10.69;100.00
50123;BME280;36021;48.670;6.184;2022-12-20T03:09:41;99233.84;;;10.68;100.00
50123;BME280;36021;48.670;6.184;2022-12-20T03:12:09;99229.69;;;10.70;100.00
50123;BME280;36021;48.670;6.184;2022-12-20T03:14:37;99236.31;;;10.69;100.00
50123;BME280;36021;48.670;6.184;2022-12-20T03:17:06;99228.19;;;10.83;100.00
50123;BME280;36021;48.670;6.184;2022-12-20T03:19:32;99228.41;;;10.86;100.00
50123;BME280;36021;48.670;6.184;2022-12-20T03:21:58;99236.66;;;10.91;100.00
50123;BME280;36021;48.670;6.184;2022-12-20T03:24:28;99232.19;;;10.95;100.00
50123;BME280;36021;48.670;6.184;2022-12-20T03:26:54;99242.06;;;11.02;100.00
50123;BME280;36021;48.670;6.184;2022-12-20T03:29:22;99239.22;;;11.07;100.00
50123;BME280;36021;48.670;6.184;2022-12-20T03:31:48;99228.19;;;11.07;100.00
50123;BME280;36021;48.670;6.184;2022-12-20T03:34:13;99238.88;;;11.13;100.00
50123;BME280;36021;48.670;6.184;2022-12-20T03:36:40;99239.44;;;11.15;100.00
50123;BME280;36021;48.670;6.184;2022-12-20T03:39:06;99226.16;;;11.17;100.00
50123;BME280;36021;48.670;6.184;2022-12-20T03:41:36;99226.91;;;11.23;100.00
50123;BME280;36021;48.670;6.184;2022-12-20T03:44:02;99214.47;;;11.25;100.00
50123;BME280;36021;48.670;6.184;2022-12-20T03:46:27;99222.69;;;11.30;100.00
50123;BME280;36021;48.670;6.184;2022-12-20T03:48:53;99215.75;;;11.33;100.00
50123;BME280;36021;48.670;6.184;2022-12-20T03:51:23;99209.34;;;11.37;100.00
50123;BME280;36021;48.670;6.184;2022-12-20T03:53:52;99202.94;;;11.42;100.00
50123;BME280;36021;48.670;6.184;2022-12-20T03:56:20;99199.88;;;11.43;100.00
50123;BME280;36021;48.670;6.184;2022-12-20T03:58:46;99196.84;;;11.45;100.00
50123;BME280;36021;48.670;6.184;2022-12-20T04:01:22;99199.81;;;11.48;100.00
50123;BME280;36021;48.670;6.184;2022-12-20T04:03:49;99183.25;;;11.48;100.00
50123;BME280;36021;48.670;6.184;2022-12-20T04:06:15;99195.66;;;11.51;100.00
50123;BME280;36021;48.670;6.184;2022-12-20T04:08:41;99185.44;;;11.52;100.00
50123;BME280;36021;48.670;6.184;2022-12-20T04:11:09;99188.13;;;11.57;100.00
50123;BME280;36021;48.670;6.184;2022-12-20T04:13:47;99185.88;;;11.59;100.00
50123;BME280;36021;48.670;6.184;2022-12-20T04:16:16;99188.03;;;11.62;100.00
50123;BME280;36021;48.670;6.184;2022-12-20T04:18:42;99183.66;;;11.61;100.00
50123;BME280;36021;48.670;6.184;2022-12-20T04:21:09;99183.66;;;11.61;100.00
50123;BME280;36021;48.670;6.184;2022-12-20T04:23:41;99179.47;;;11.63;100.00
50123;BME280;36021;48.670;6.184;2022-12-20T04:26:09;99191.34;;;11.64;100.00
50123;BME280;36021;48.670;6.184;2022-12-20T04:28:35;99193.50;;;11.67;100.00
50123;BME280;36021;48.670;6.184;2022-12-20T04:31:02;99198.19;;;11.66;100.00
50123;BME280;36021;48.670;6.184;2022-12-20T04:33:31;99200.13;;;11.66;100.00
50123;BME280;36021;48.670;6.184;2022-12-20T04:35:56;99195.16;;;11.68;100.00
50123;BME280;36021;48.670;6.184;2022-12-20T04:38:23;99212.31;;;11.65;100.00
50123;BME280;36021;48.670;6.184;2022-12-20T04:40:52;99198.41;;;11.70;100.00
50123;BME280;36021;48.670;6.184;2022-12-20T04:43:20;99193.75;;;11.70;100.00
50123;BME280;36021;48.670;6.184;2022-12-20T04:45:48;99190.69;;;11.72;100.00
50123;BME280;36021;48.670;6.184;2022-12-20T04:48:14;99188.22;;;11.70;100.00
50123;BME280;36021;48.670;6.184;2022-12-20T04:50:41;99186.31;;;11.71;100.00
50123;BME280;36021;48.670;6.184;2022-12-20T04:53:09;99181.28;;;11.73;100.00
50123;BME280;36021;48.670;6.184;2022-12-20T04:55:53;99180.69;;;11.76;100.00
50123;BME280;36021;48.670;6.184;2022-12-20T04:58:19;99193.97;;;11.74;100.00
50123;BME280;36021;48.670;6.184;2022-12-20T05:00:45;99176.88;;;11.72;100.00
50123;BME280;36021;48.670;6.184;2022-12-20T05:03:22;99179.63;;;11.72;100.00
50123;BME280;36021;48.670;6.184;2022-12-20T05:05:48;99180.78;;;11.71;100.00
50123;BME280;36021;48.670;6.184;2022-12-20T05:08:14;99167.47;;;11.73;100.00
50123;BME280;36021;48.670;6.184;2022-12-20T05:10:41;99178.00;;;11.71;100.00
50123;BME280;36021;48.670;6.184;2022-12-20T05:13:07;99174.94;;;11.72;100.00
50123;BME280;36021;48.670;6.184;2022-12-20T05:15:37;99181.03;;;11.69;100.00
50123;BME280;36021;48.670;6.184;2022-12-20T05:18:04;99182.44;;;11.67;100.00
50123;BME280;36021;48.670;6.184;2022-12-20T05:20:42;99173.66;;;11.65;100.00
50123;BME280;36021;48.670;6.184;2022-12-20T05:23:10;99177.53;;;11.64;100.00
50123;BME280;36021;48.670;6.184;2022-12-20T05:26:04;99172.84;;;11.64;100.00
50123;BME280;36021;48.670;6.184;2022-12-20T05:28:42;99178.34;;;11.64;100.00
50123;BME280;36021;48.670;6.184;2022-12-20T05:31:07;99168.72;;;11.62;100.00
50123;BME280;36021;48.670;6.184;2022-12-20T05:33:34;99160.97;;;11.64;100.00
50123;BME280;36021;48.670;6.184;2022-12-20T05:36:01;99159.31;;;11.63;100.00
50123;BME280;36021;48.670;6.184;2022-12-20T05:38:27;99157.66;;;11.62;100.00
50123;BME280;36021;48.670;6.184;2022-12-20T05:40:54;99154.63;;;11.63;100.00
50123;BME280;36021;48.670;6.184;2022-12-20T05:43:20;99142.47;;;11.64;100.00
50123;BME280;36021;48.670;6.184;2022-12-20T05:45:48;99144.41;;;11.64;100.00
50123;BME280;36021;48.670;6.184;2022-12-20T05:48:21;99149.91;;;11.64;100.00
50123;BME280;36021;48.670;6.184;2022-12-20T05:50:47;99139.38;;;11.66;100.00
50123;BME280;36021;48.670;6.184;2022-12-20T05:53:24;99132.75;;;11.67;100.00
50123;BME280;36021;48.670;6.184;2022-12-20T05:55:54;99141.31;;;11.65;100.00
50123;BME280;36021;48.670;6.184;2022-12-20T05:58:24;99144.91;;;11.66;100.00
50123;BME280;36021;48.670;6.184;2022-12-20T06:01:02;99140.44;;;11.70;100.00
50123;BME280;36021;48.670;6.184;2022-12-20T06:03:33;99152.03;;;11.72;100.00
50123;BME280;36021;48.670;6.184;2022-12-20T06:06:01;99144.56;;;11.72;100.00
50123;BME280;36021;48.670;6.184;2022-12-20T06:08:29;99148.72;;;11.70;100.00
50123;BME280;36021;48.670;6.184;2022-12-20T06:10:57;99157.88;;;11.70;100.00
50123;BME280;36021;48.670;6.184;2022-12-20T06:13:24;99149.59;;;11.70;100.00
50123;BME280;36021;48.670;6.184;2022-12-20T06:15:52;99145.41;;;11.73;100.00
50123;BME280;36021;48.670;6.184;2022-12-20T06:18:19;99148.72;;;11.70;100.00
50123;BME280;36021;48.670;6.184;2022-12-20T06:20:52;99147.06;;;11.69;100.00
50123;BME280;36021;48.670;6.184;2022-12-20T06:23:21;99135.53;;;11.67;100.00
50123;BME280;36021;48.670;6.184;2022-12-20T06:26:00;99147.38;;;11.67;100.00
50123;BME280;36021;48.670;6.184;2022-12-20T06:28:29;99144.88;;;11.71;100.00
50123;BME280;36021;48.670;6.184;2022-12-20T06:30:56;99130.50;;;11.69;100.00
50123;BME280;36021;48.670;6.184;2022-12-20T06:33:35;99140.97;;;11.72;100.00
50123;BME280;36021;48.670;6.184;2022-12-20T06:36:02;99128.31;;;11.71;100.00
50123;BME280;36021;48.670;6.184;2022-12-20T06:38:28;99126.63;;;11.70;100.00
50123;BME280;36021;48.670;6.184;2022-12-20T06:40:53;99126.56;;;11.75;100.00
50123;BME280;36021;48.670;6.184;2022-12-20T06:43:19;99137.09;;;11.73;100.00
50123;BME280;36021;48.670;6.184;2022-12-20T06:45:46;99130.47;;;11.74;100.00
50123;BME280;36021;48.670;6.184;2022-12-20T06:48:11;99119.13;;;11.75;100.00
50123;BME280;36021;48.670;6.184;2022-12-20T06:50:38;99115.25;;;11.76;100.00
50123;BME280;36021;48.670;6.184;2022-12-20T06:53:05;99105.25;;;11.80;100.00
50123;BME280;36021;48.670;6.184;2022-12-20T06:55:31;99103.81;;;11.83;100.00
50123;BME280;36021;48.670;6.184;2022-12-20T06:57:59;99106.56;;;11.83;100.00
50123;BME280;36021;48.670;6.184;2022-12-20T07:00:25;99119.56;;;11.82;100.00
50123;BME280;36021;48.670;6.184;2022-12-20T07:02:51;99100.53;;;11.81;100.00
50123;BME280;36021;48.670;6.184;2022-12-20T07:05:17;99108.28;;;11.79;100.00
50123;BME280;36021;48.670;6.184;2022-12-20T07:07:43;99108.28;;;11.79;100.00
50123;BME280;36021;48.670;6.184;2022-12-20T07:10:08;99101.16;;;11.78;100.00
50123;BME280;36021;48.670;6.184;2022-12-20T07:12:34;99088.75;;;11.75;100.00
50123;BME280;36021;48.670;6.184;2022-12-20T07:15:00;99106.13;;;11.76;100.00
50123;BME280;36021;48.670;6.184;2022-12-20T07:17:25;99101.22;;;11.73;100.00
50123;BME280;36021;48.670;6.184;2022-12-20T07:19:51;99108.69;;;11.72;100.00
50123;BME280;36021;48.670;6.184;2022-12-20T07:22:17;99107.84;;;11.72;100.00
50123;BME280;36021;48.670;6.184;2022-12-20T07:24:45;99106.22;;;11.71;100.00
50123;BME280;36021;48.670;6.184;2022-12-20T07:27:12;99104.03;;;11.68;100.00
50123;BME280;36021;48.670;6.184;2022-12-20T07:29:38;99095.75;;;11.68;100.00
50123;BME280;36021;48.670;6.184;2022-12-20T07:32:06;99097.38;;;11.69;100.00
50123;BME280;36021;48.670;6.184;2022-12-20T07:34:32;99104.03;;;11.68;100.00
50123;BME280;36021;48.670;6.184;2022-12-20T07:36:58;99102.69;;;11.65;100.00
50123;BME280;36021;48.670;6.184;2022-12-20T07:39:24;99105.16;;;11.67;100.00
50123;BME280;36021;48.670;6.184;2022-12-20T07:41:53;99100.97;;;11.69;100.00
50123;BME280;36021;48.670;6.184;2022-12-20T07:44:21;99090.75;;;11.70;100.00
50123;BME280;36021;48.670;6.184;2022-12-20T07:46:47;99098.19;;;11.69;100.00
50123;BME280;36021;48.670;6.184;2022-12-20T07:49:13;99106.75;;;11.73;100.00
50123;BME280;36021;48.670;6.184;2022-12-20T07:51:47;99100.63;;;11.76;100.00
50123;BME280;36021;48.670;6.184;2022-12-20T07:54:15;99085.69;;;11.77;100.00
50123;BME280;36021;48.670;6.184;2022-12-20T07:56:48;99090.09;;;11.78;100.00
50123;BME280;36021;48.670;6.184;2022-12-20T07:59:21;99099.50;;;11.77;100.00
50123;BME280;36021;48.670;6.184;2022-12-20T08:01:49;99105.53;;;11.79;100.00
50123;BME280;36021;48.670;6.184;2022-12-20T08:04:20;99103.31;;;11.81;100.00
50123;BME280;36021;48.670;6.184;2022-12-20T08:06:49;99111.28;;;11.82;100.00
50123;BME280;36021;48.670;6.184;2022-12-20T08:09:16;99108.22;;;11.84;100.00
50123;BME280;36021;48.670;6.184;2022-12-20T08:11:45;99100.97;;;11.88;100.00
50123;BME280;36021;48.670;6.184;2022-12-20T08:14:13;99113.66;;;11.89;100.00
50123;BME280;36021;48.670;6.184;2022-12-20T08:16:38;99103.66;;;11.93;100.00
50123;BME280;36021;48.670;6.184;2022-12-20T08:19:04;99102.84;;;11.92;100.00
50123;BME280;36021;48.670;6.184;2022-12-20T08:21:30;99096.47;;;11.92;100.00
50123;BME280;36021;48.670;6.184;2022-12-20T08:23:58;99100.38;;;11.91;100.00
50123;BME280;36021;48.670;6.184;2022-12-20T08:26:24;99102.00;;;11.92;100.00
50123;BME280;36021;48.670;6.184;2022-12-20T08:28:50;99099.25;;;11.92;100.00
50123;BME280;36021;48.670;6.184;2022-12-20T08:31:16;99094.03;;;11.90;100.00
50123;BME280;36021;48.670;6.184;2022-12-20T08:33:41;99095.25;;;11.98;100.00
50123;BME280;36021;48.670;6.184;2022-12-20T08:36:10;99092.59;;;11.93;100.00
50123;BME280;36021;48.670;6.184;2022-12-20T08:38:37;99091.19;;;11.95;100.00
50123;BME280;36021;48.670;6.184;2022-12-20T08:41:11;99088.13;;;11.97;100.00
50123;BME280;36021;48.670;6.184;2022-12-20T08:43:38;99092.00;;;11.96;100.00
50123;BME280;36021;48.670;6.184;2022-12-20T08:46:06;99094.75;;;11.96;100.00
50123;BME280;36021;48.670;6.184;2022-12-20T08:48:32;99081.78;;;11.96;100.00
50123;BME280;36021;48.670;6.184;2022-12-20T08:51:04;99103.88;;;11.96;100.00
50123;BME280;36021;48.670;6.184;2022-12-20T08:53:32;99104.69;;;11.97;100.00
50123;BME280;36021;48.670;6.184;2022-12-20T08:56:14;99103.88;;;11.96;100.00
50123;BME280;36021;48.670;6.184;2022-12-20T08:58:41;99103.25;;;11.99;100.00
50123;BME280;36021;48.670;6.184;2022-12-20T09:01:10;99105.22;;;11.99;100.00
50123;BME280;36021;48.670;6.184;2022-12-20T09:03:37;99102.38;;;12.04;100.00
50123;BME280;36021;48.670;6.184;2022-12-20T09:06:08;99127.75;;;12.06;100.00
50123;BME280;36021;48.670;6.184;2022-12-20T09:08:35;99103.91;;;12.10;100.00
50123;BME280;36021;48.670;6.184;2022-12-20T09:11:06;99099.50;;;12.09;100.00
50123;BME280;36021;48.670;6.184;2022-12-20T09:13:32;99092.25;;;12.13;100.00
50123;BME280;36021;48.670;6.184;2022-12-20T09:16:00;99086.94;;;12.17;100.00
50123;BME280;36021;48.670;6.184;2022-12-20T09:18:26;99098.78;;;12.17;100.00
50123;BME280;36021;48.670;6.184;2022-12-20T09:20:51;99107.63;;;12.19;100.00
50123;BME280;36021;48.670;6.184;2022-12-20T09:23:17;99105.38;;;12.21;100.00
50123;BME280;36021;48.670;6.184;2022-12-20T09:25:46;99109.28;;;12.20;100.00
50123;BME280;36021;48.670;6.184;2022-12-20T09:28:11;99107.00;;;12.22;100.00
50123;BME280;36021;48.670;6.184;2022-12-20T09:30:37;99102.59;;;12.21;100.00
50123;BME280;36021;48.670;6.184;2022-12-20T09:33:03;99101.47;;;12.22;100.00
50123;BME280;36021;48.670;6.184;2022-12-20T09:35:28;99105.91;;;12.23;100.00
50123;BME280;36021;48.670;6.184;2022-12-20T09:37:54;99081.75;;;12.29;100.00
50123;BME280;36021;48.670;6.184;2022-12-20T09:40:23;99077.47;;;12.36;100.00
50123;BME280;36021;48.670;6.184;2022-12-20T09:42:51;99065.69;;;12.44;100.00
50123;BME280;36021;48.670;6.184;2022-12-20T09:45:28;99073.28;;;12.52;100.00
50123;BME280;36021;48.670;6.184;2022-12-20T09:47:56;99058.66;;;12.66;100.00
50123;BME280;36021;48.670;6.184;2022-12-20T09:53:22;99047.16;;;12.86;100.00
50123;BME280;36021;48.670;6.184;2022-12-20T09:55:57;99055.03;;;12.92;100.00
50123;BME280;36021;48.670;6.184;2022-12-20T09:58:36;99065.06;;;13.02;100.00
50123;BME280;36021;48.670;6.184;2022-12-20T10:01:15;99046.50;;;13.02;100.00
50123;BME280;36021;48.670;6.184;2022-12-20T10:03:42;99044.97;;;13.10;100.00
50123;BME280;36021;48.670;6.184;2022-12-20T10:06:15;99057.91;;;13.15;100.00
50123;BME280;36021;48.670;6.184;2022-12-20T10:08:56;99058.19;;;13.13;100.00
50123;BME280;36021;48.670;6.184;2022-12-20T10:16:44;99043.16;;;13.41;100.00
50123;BME280;36021;48.670;6.184;2022-12-20T10:19:13;99026.84;;;13.40;100.00
50123;BME280;36021;48.670;6.184;2022-12-20T10:24:28;99008.53;;;14.76;100.00
50123;BME280;36021;48.670;6.184;2022-12-20T10:26:56;99006.66;;;15.10;100.00
50123;BME280;36021;48.670;6.184;2022-12-20T10:29:24;99018.44;;;15.33;100.00
50123;BME280;36021;48.670;6.184;2022-12-20T10:31:57;99019.38;;;14.94;100.00
50123;BME280;36021;48.670;6.184;2022-12-20T10:34:24;99024.25;;;14.89;100.00
50123;BME280;36021;48.670;6.184;2022-12-20T10:37:10;99029.25;;;14.61;100.00
50123;BME280;36021;48.670;6.184;2022-12-20T10:39:42;99018.53;;;14.37;100.00
50123;BME280;36021;48.670;6.184;2022-12-20T10:42:40;99024.47;;;14.22;100.00
50123;BME280;36021;48.670;6.184;2022-12-20T10:47:44;99019.09;;;13.95;100.00
50123;BME280;36021;48.670;6.184;2022-12-20T10:50:16;99023.28;;;13.84;100.00
50123;BME280;36021;48.670;6.184;2022-12-20T10:52:43;99015.59;;;13.81;100.00
50123;BME280;36021;48.670;6.184;2022-12-20T10:55:37;99013.59;;;13.73;100.00
50123;BME280;36021;48.670;6.184;2022-12-20T10:58:21;98994.34;;;13.68;100.00
50123;BME280;36021;48.670;6.184;2022-12-20T11:01:10;98992.94;;;13.56;100.00
50123;BME280;36021;48.670;6.184;2022-12-20T11:04:34;98978.88;;;13.44;100.00
50123;BME280;36021;48.670;6.184;2022-12-20T11:06:42;98972.88;;;13.51;100.00
50123;BME280;36021;48.670;6.184;2022-12-20T11:09:29;98972.63;;;13.92;100.00
50123;BME280;36021;48.670;6.184;2022-12-20T11:12:15;98962.91;;;14.03;100.00
50123;BME280;36021;48.670;6.184;2022-12-20T11:14:44;98958.78;;;14.23;100.00
50123;BME280;36021;48.670;6.184;2022-12-20T11:20:27;98955.63;;;14.16;100.00
50123;BME280;36021;48.670;6.184;2022-12-20T11:22:50;98944.38;;;14.12;100.00
50123;BME280;36021;48.670;6.184;2022-12-20T11:28:30;98930.03;;;14.10;100.00
50123;BME280;36021;48.670;6.184;2022-12-20T11:34:06;98939.94;;;14.50;100.00
50123;BME280;36021;48.670;6.184;2022-12-20T11:39:43;98928.03;;;14.50;100.00
50123;BME280;36021;48.670;6.184;2022-12-20T11:53:41;98898.75;;;14.92;100.00
50123;BME280;36021;48.670;6.184;2022-12-20T11:56:11;98894.94;;;15.39;100.00
50123;BME280;36021;48.670;6.184;2022-12-20T11:58:49;98895.78;;;15.23;100.00
50123;BME280;36021;48.670;6.184;2022-12-20T12:01:23;98898.22;;;15.33;100.00
50123;BME280;36021;48.670;6.184;2022-12-20T12:04:17;98895.28;;;15.12;100.00
50123;BME280;36021;48.670;6.184;2022-12-20T12:06:54;98876.03;;;14.90;100.00
50123;BME280;36021;48.670;6.184;2022-12-20T12:09:22;98892.34;;;15.00;100.00
50123;BME280;36021;48.670;6.184;2022-12-20T12:12:02;98860.22;;;14.65;100.00
50123;BME280;36021;48.670;6.184;2022-12-20T12:14:41;98861.16;;;14.51;100.00
50123;BME280;36021;48.670;6.184;2022-12-20T12:17:17;98870.78;;;14.45;100.00
50123;BME280;36021;48.670;6.184;2022-12-20T12:19:48;98875.00;;;14.34;100.00
50123;BME280;36021;48.670;6.184;2022-12-20T12:22:21;98863.91;;;14.34;100.00
50123;BME280;36021;48.670;6.184;2022-12-20T12:24:52;98857.34;;;14.30;100.00
50123;BME280;36021;48.670;6.184;2022-12-20T12:27:25;98855.84;;;14.16;100.00
50123;BME280;36021;48.670;6.184;2022-12-20T12:29:53;98854.88;;;14.20;100.00
50123;BME280;36021;48.670;6.184;2022-12-20T12:32:25;98858.94;;;14.14;100.00
50123;BME280;36021;48.670;6.184;2022-12-20T12:38:09;98858.59;;;14.07;100.00
50123;BME280;36021;48.670;6.184;2022-12-20T12:44:45;98851.13;;;14.16;100.00
50123;BME280;36021;48.670;6.184;2022-12-20T12:46:38;98868.25;;;14.18;100.00
50123;BME280;36021;48.670;6.184;2022-12-20T12:49:19;98864.53;;;14.31;100.00
50123;BME280;36021;48.670;6.184;2022-12-20T12:51:52;98854.94;;;14.37;100.00
50123;BME280;36021;48.670;6.184;2022-12-20T12:54:23;98858.72;;;14.41;100.00
50123;BME280;36021;48.670;6.184;2022-12-20T12:56:52;98864.41;;;14.53;100.00
50123;BME280;36021;48.670;6.184;2022-12-20T13:07:24;98853.84;;;14.81;100.00
50123;BME280;36021;48.670;6.184;2022-12-20T13:09:48;98857.75;;;14.72;100.00
50123;BME280;36021;48.670;6.184;2022-12-20T13:17:57;98818.88;;;14.29;100.00
50123;BME280;36021;48.670;6.184;2022-12-20T13:20:28;98828.16;;;14.24;100.00
50123;BME280;36021;48.670;6.184;2022-12-20T13:33:22;98802.38;;;14.06;100.00
50123;BME280;36021;48.670;6.184;2022-12-20T13:36:35;98805.63;;;14.00;100.00
50123;BME280;36021;48.670;6.184;2022-12-20T13:41:47;98813.94;;;14.00;100.00
50123;BME280;36021;48.670;6.184;2022-12-20T13:46:42;98828.25;;;14.02;100.00
50123;BME280;36021;48.670;6.184;2022-12-20T13:49:28;98827.78;;;14.08;100.00
50123;BME280;36021;48.670;6.184;2022-12-20T13:54:45;98825.69;;;14.14;100.00
50123;BME280;36021;48.670;6.184;2022-12-20T13:57:26;98828.78;;;14.13;100.00
50123;BME280;36021;48.670;6.184;2022-12-20T13:59:55;98830.75;;;14.12;100.00
50123;BME280;36021;48.670;6.184;2022-12-20T14:02:33;98830.25;;;14.10;100.00
50123;BME280;36021;48.670;6.184;2022-12-20T14:05:05;98828.75;;;14.04;100.00
50123;BME280;36021;48.670;6.184;2022-12-20T14:07:33;98826.63;;;14.01;100.00
50123;BME280;36021;48.670;6.184;2022-12-20T14:10:01;98820.25;;;14.00;100.00
50123;BME280;36021;48.670;6.184;2022-12-20T14:12:28;98821.91;;;14.01;100.00
50123;BME280;36021;48.670;6.184;2022-12-20T14:14:55;98821.72;;;13.98;100.00
50123;BME280;36021;48.670;6.184;2022-12-20T14:17:25;98821.25;;;13.96;100.00
50123;BME280;36021;48.670;6.184;2022-12-20T14:20:30;98816.16;;;13.89;100.00
50123;BME280;36021;48.670;6.184;2022-12-20T14:23:04;98805.91;;;13.90;100.00
50123;BME280;36021;48.670;6.184;2022-12-20T14:28:13;98828.22;;;13.85;100.00
50123;BME280;36021;48.670;6.184;2022-12-20T14:30:42;98832.75;;;13.81;100.00
50123;BME280;36021;48.670;6.184;2022-12-20T14:33:24;98825.59;;;13.80;100.00
50123;BME280;36021;48.670;6.184;2022-12-20T14:35:52;98817.94;;;13.77;100.00
50123;BME280;36021;48.670;6.184;2022-12-20T14:38:28;98838.13;;;13.77;100.00
50123;BME280;36021;48.670;6.184;2022-12-20T14:40:55;98831.78;;;13.77;100.00
50123;BME280;36021;48.670;6.184;2022-12-20T14:43:23;98852.94;;;13.73;100.00